createdAt,value
2022-09-28T00:01:18.190Z,3.40
2022-09-28T00:03:47.796Z,2.90
2022-09-28T00:06:18.775Z,2.50
2022-09-28T00:08:47.172Z,3.10
2022-09-28T00:11:15.539Z,3.40
2022-09-28T00:13:44.091Z,3.70
2022-09-28T00:16:20.824Z,3.60
2022-09-28T00:18:51.366Z,3.50
2022-09-28T00:21:22.883Z,2.90
2022-09-28T00:24:14.733Z,3.00
2022-09-28T00:26:48.255Z,3.50
2022-09-28T00:29:24.881Z,3.20
2022-09-28T00:31:57.317Z,3.00
2022-09-28T00:34:25.952Z,3.10
2022-09-28T00:36:54.014Z,3.50
2022-09-28T00:39:21.927Z,3.10
2022-09-28T00:41:50.897Z,3.20
2022-09-28T00:44:39.304Z,3.20
2022-09-28T00:47:45.541Z,3.20
2022-09-28T00:50:30.412Z,3.20
2022-09-28T00:53:05.202Z,3.30
2022-09-28T00:56:01.207Z,3.40
2022-09-28T00:58:39.095Z,3.40
2022-09-28T01:01:07.450Z,3.20
2022-09-28T01:03:37.523Z,3.40
2022-09-28T01:06:07.605Z,3.40
2022-09-28T01:08:37.082Z,3.30
2022-09-28T01:11:05.392Z,3.90
2022-09-28T01:13:33.886Z,3.70
2022-09-28T01:16:15.036Z,3.80
2022-09-28T01:19:03.805Z,3.10
2022-09-28T01:21:41.029Z,3.10
2022-09-28T01:24:16.646Z,3.80
2022-09-28T01:26:59.748Z,3.70
2022-09-28T01:29:46.165Z,3.60
2022-09-28T01:32:19.935Z,3.50
2022-09-28T01:35:10.111Z,4.00
2022-09-28T01:37:47.462Z,3.40
2022-09-28T01:40:17.391Z,3.90
2022-09-28T01:42:49.017Z,3.70
2022-09-28T01:45:34.937Z,3.20
2022-09-28T01:48:07.093Z,3.60
2022-09-28T01:50:38.551Z,3.90
2022-09-28T01:53:25.297Z,3.90
2022-09-28T01:56:00.482Z,3.90
2022-09-28T01:58:37.975Z,3.60
2022-09-28T02:01:16.648Z,3.40
2022-09-28T02:03:53.565Z,3.20
2022-09-28T02:06:32.216Z,3.50
2022-09-28T02:09:10.062Z,3.90
2022-09-28T02:11:45.229Z,3.80
2022-09-28T02:14:17.404Z,3.60
2022-09-28T02:16:50.253Z,3.70
2022-09-28T02:19:20.616Z,3.20
2022-09-28T02:21:53.381Z,3.80
2022-09-28T02:24:42.469Z,3.70
2022-09-28T02:27:18.121Z,3.40
2022-09-28T02:29:46.003Z,3.30
2022-09-28T02:32:14.543Z,3.30
2022-09-28T02:34:42.398Z,3.90
2022-09-28T02:37:10.484Z,3.60
2022-09-28T02:39:38.717Z,4.00
2022-09-28T02:42:09.427Z,3.60
2022-09-28T02:45:11.953Z,3.80
2022-09-28T02:48:02.445Z,3.00
2022-09-28T02:50:56.465Z,3.80
2022-09-28T02:53:30.096Z,3.50
2022-09-28T02:56:29.659Z,3.50
2022-09-28T02:59:34.883Z,3.00
2022-09-28T03:02:25.346Z,4.10
2022-09-28T03:05:14.257Z,3.60
2022-09-28T03:08:21.139Z,4.00
2022-09-28T03:10:53.230Z,3.50
2022-09-28T03:13:21.352Z,3.20
2022-09-28T03:15:49.393Z,3.00
2022-09-28T03:18:17.764Z,3.90
2022-09-28T03:20:45.698Z,3.70
2022-09-28T03:23:24.241Z,4.40
2022-09-28T03:25:53.183Z,3.90
2022-09-28T03:28:22.276Z,3.80
2022-09-28T03:30:50.421Z,3.90
2022-09-28T03:33:19.875Z,4.10
2022-09-28T03:35:49.401Z,4.30
2022-09-28T03:38:18.692Z,3.90
2022-09-28T03:40:54.990Z,3.90
2022-09-28T03:43:24.007Z,3.80
2022-09-28T03:45:56.924Z,4.40
2022-09-28T03:48:31.916Z,4.30
2022-09-28T03:51:07.059Z,3.90
2022-09-28T03:53:36.212Z,4.00
2022-09-28T03:56:22.235Z,4.20
2022-09-28T03:58:50.119Z,4.70
2022-09-28T04:01:18.555Z,4.80
2022-09-28T04:03:47.652Z,4.40
2022-09-28T04:06:15.642Z,5.00
2022-09-28T04:08:43.674Z,3.60
2022-09-28T04:11:11.853Z,4.40
2022-09-28T04:13:39.744Z,4.40
2022-09-28T04:16:08.384Z,4.40
2022-09-28T04:18:36.513Z,4.30
2022-09-28T04:21:10.565Z,4.30
2022-09-28T04:23:40.272Z,5.20
2022-09-28T04:26:16.655Z,5.10
2022-09-28T04:29:06.838Z,5.30
2022-09-28T04:31:47.399Z,4.80
2022-09-28T04:34:20.625Z,6.00
2022-09-28T04:36:49.185Z,4.60
2022-09-28T04:39:19.213Z,5.60
2022-09-28T04:41:48.853Z,5.30
2022-09-28T04:44:16.773Z,5.30
2022-09-28T04:46:44.704Z,4.20
2022-09-28T04:49:12.771Z,5.30
2022-09-28T04:51:40.682Z,5.30
2022-09-28T04:54:08.608Z,5.60
2022-09-28T04:56:36.424Z,5.50
2022-09-28T04:59:04.481Z,5.40
2022-09-28T05:01:32.502Z,4.90
2022-09-28T05:04:00.483Z,5.50
2022-09-28T05:06:30.938Z,6.40
2022-09-28T05:09:00.477Z,4.60
2022-09-28T05:11:28.456Z,5.00
2022-09-28T05:13:56.964Z,4.40
2022-09-28T05:16:26.321Z,6.70
2022-09-28T05:18:57.516Z,5.90
2022-09-28T05:21:26.834Z,5.10
2022-09-28T05:23:56.780Z,5.70
2022-09-28T05:26:25.225Z,5.70
2022-09-28T05:28:53.224Z,5.90
2022-09-28T05:31:21.162Z,4.30
2022-09-28T05:33:49.321Z,5.60
2022-09-28T05:36:17.162Z,5.90
2022-09-28T05:38:45.351Z,5.80
2022-09-28T05:41:13.250Z,5.40
2022-09-28T05:43:44.032Z,4.90
2022-09-28T05:46:12.475Z,4.60
2022-09-28T05:48:40.324Z,5.50
2022-09-28T05:51:10.215Z,5.30
2022-09-28T05:53:38.118Z,5.60
2022-09-28T05:56:06.324Z,5.20
2022-09-28T05:58:34.226Z,5.10
2022-09-28T06:01:02.137Z,6.00
2022-09-28T06:03:30.065Z,5.70
2022-09-28T06:06:01.692Z,5.70
2022-09-28T06:08:32.860Z,6.00
2022-09-28T06:11:01.695Z,5.00
2022-09-28T06:13:30.216Z,4.70
2022-09-28T06:15:58.184Z,5.20
2022-09-28T06:18:26.051Z,5.00
2022-09-28T06:20:54.211Z,4.60
2022-09-28T06:23:22.355Z,5.00
2022-09-28T06:25:50.209Z,4.90
2022-09-28T06:28:18.059Z,4.80
2022-09-28T06:30:45.914Z,4.50
2022-09-28T06:33:15.084Z,5.20
2022-09-28T06:35:43.288Z,5.10
2022-09-28T06:38:11.720Z,4.90
2022-09-28T06:50:41.445Z,5.30
2022-09-28T06:53:12.960Z,4.50
2022-09-28T06:55:42.514Z,4.30
2022-09-28T06:58:13.301Z,4.70
2022-09-28T07:00:41.487Z,5.30
2022-09-28T07:03:17.066Z,4.60
2022-09-28T07:05:48.448Z,4.70
2022-09-28T07:08:17.275Z,4.50
2022-09-28T07:10:48.030Z,4.20
2022-09-28T07:13:45.566Z,4.20
2022-09-28T07:16:05.224Z,4.10
2022-09-28T07:18:33.297Z,4.70
2022-09-28T07:21:03.029Z,4.00
2022-09-28T07:23:31.467Z,3.10
2022-09-28T07:26:07.784Z,3.20
2022-09-28T07:28:40.742Z,2.80
2022-09-28T07:31:09.823Z,3.10
2022-09-28T07:33:38.138Z,2.50
2022-09-28T07:36:07.233Z,3.20
2022-09-28T07:38:35.315Z,3.40
2022-09-28T07:41:12.187Z,3.10
2022-09-28T07:43:41.202Z,3.40
2022-09-28T07:46:12.373Z,3.60
2022-09-28T07:48:45.989Z,3.70
2022-09-28T07:51:14.232Z,3.10
2022-09-28T07:53:42.239Z,3.40
2022-09-28T07:56:10.210Z,3.30
2022-09-28T07:58:39.629Z,3.20
2022-09-28T08:01:15.077Z,3.70
2022-09-28T08:03:48.337Z,3.50
2022-09-28T08:06:17.765Z,15.50
2022-09-28T08:08:45.704Z,3.00
2022-09-28T08:11:16.893Z,2.60
2022-09-28T08:13:46.597Z,2.60
2022-09-28T08:16:14.751Z,2.40
2022-09-28T08:18:42.827Z,2.50
2022-09-28T08:21:29.361Z,2.40
2022-09-28T08:23:57.641Z,2.00
2022-09-28T08:26:25.555Z,2.50
2022-09-28T08:28:53.387Z,2.40
2022-09-28T08:31:21.309Z,2.00
2022-09-28T08:33:53.925Z,3.00
2022-09-28T08:36:21.870Z,3.10
2022-09-28T08:38:50.434Z,3.20
2022-09-28T08:41:36.917Z,3.20
2022-09-28T08:44:28.990Z,3.40
2022-09-28T08:47:04.093Z,3.10
2022-09-28T08:49:41.683Z,2.70
2022-09-28T08:52:24.888Z,2.90
2022-09-28T08:55:16.530Z,2.70
2022-09-28T08:57:57.798Z,2.40
2022-09-28T09:00:34.473Z,2.70
2022-09-28T09:03:41.910Z,2.90
2022-09-28T09:07:03.402Z,2.60
2022-09-28T09:09:34.407Z,2.20
2022-09-28T09:12:18.979Z,2.40
2022-09-28T09:15:05.433Z,2.30
2022-09-28T09:17:46.403Z,2.20
2022-09-28T09:20:34.330Z,2.00
2022-09-28T09:23:16.369Z,1.90
2022-09-28T09:25:55.015Z,2.40
2022-09-28T09:28:43.911Z,2.20
2022-09-28T09:31:30.517Z,2.20
2022-09-28T09:34:20.831Z,2.30
2022-09-28T09:37:14.164Z,2.30
2022-09-28T09:39:51.583Z,2.80
2022-09-28T09:42:23.696Z,2.60
2022-09-28T09:45:08.032Z,3.40
2022-09-28T09:47:44.927Z,2.90
2022-09-28T09:50:31.981Z,2.70
2022-09-28T09:53:13.372Z,3.40
2022-09-28T09:55:47.399Z,2.70
2022-09-28T09:58:23.474Z,3.00
2022-09-28T10:00:54.445Z,2.80
2022-09-28T10:03:26.982Z,2.70
2022-09-28T10:06:00.417Z,3.20
2022-09-28T10:08:29.550Z,2.30
2022-09-28T10:11:27.074Z,2.30
2022-09-28T10:13:55.388Z,2.50
2022-09-28T10:16:24.401Z,2.30
2022-09-28T10:18:52.244Z,2.50
2022-09-28T10:21:23.218Z,1.90
2022-09-28T10:23:57.756Z,2.00
2022-09-28T10:26:35.775Z,2.30
2022-09-28T10:29:23.360Z,2.30
2022-09-28T10:31:55.886Z,2.00
2022-09-28T10:34:29.162Z,2.20
2022-09-28T10:37:09.781Z,2.40
2022-09-28T10:39:54.201Z,1.80
2022-09-28T10:42:33.034Z,2.00
2022-09-28T10:45:15.655Z,2.00
2022-09-28T10:47:44.681Z,1.80
2022-09-28T10:50:25.717Z,1.70
2022-09-28T10:52:54.064Z,1.80
2022-09-28T10:55:21.988Z,1.60
2022-09-28T10:57:50.407Z,1.80
2022-09-28T11:00:42.438Z,1.70
2022-09-28T11:03:41.897Z,1.90
2022-09-28T11:06:09.949Z,2.20
2022-09-28T11:08:41.922Z,2.10
2022-09-28T11:11:13.057Z,1.80
2022-09-28T11:13:50.387Z,1.40
2022-09-28T11:16:24.509Z,1.60
2022-09-28T11:18:53.190Z,1.60
2022-09-28T11:21:40.457Z,1.70
2022-09-28T11:24:23.415Z,1.60
2022-09-28T11:26:56.426Z,2.90
2022-09-28T11:29:46.200Z,1.50
2022-09-28T11:32:16.047Z,1.80
2022-09-28T11:34:59.325Z,1.60
2022-09-28T11:38:00.057Z,1.40
2022-09-28T11:40:50.222Z,1.50
2022-09-28T11:43:48.105Z,1.60
2022-09-28T11:46:20.406Z,1.30
2022-09-28T11:48:55.483Z,1.20
2022-09-28T11:51:28.817Z,1.60
2022-09-28T11:54:19.732Z,1.40
2022-09-28T11:56:50.934Z,1.40
2022-09-28T11:59:29.047Z,1.40
2022-09-28T12:01:58.921Z,1.40
2022-09-28T12:04:37.151Z,1.50
2022-09-28T12:07:28.922Z,1.50
2022-09-28T12:10:08.239Z,1.60
2022-09-28T12:12:39.039Z,1.60
2022-09-28T12:16:12.970Z,1.60
2022-09-28T12:18:42.127Z,1.50
2022-09-28T12:21:22.721Z,1.70
2022-09-28T12:23:53.705Z,1.70
2022-09-28T12:26:59.361Z,1.70
2022-09-28T12:30:13.916Z,1.50
2022-09-28T12:32:51.108Z,1.60
2022-09-28T12:35:18.910Z,1.40
2022-09-28T12:38:28.892Z,1.40
2022-09-28T12:41:16.820Z,1.30
2022-09-28T12:44:04.036Z,1.60
2022-09-28T12:47:05.770Z,1.40
2022-09-28T12:50:37.589Z,1.30
2022-09-28T12:55:51.100Z,1.10
2022-09-28T12:58:50.894Z,1.20
2022-09-28T13:01:30.855Z,1.40
2022-09-28T13:04:15.749Z,1.30
2022-09-28T13:06:52.530Z,1.20
2022-09-28T13:09:44.940Z,1.20
2022-09-28T13:12:30.568Z,1.10
2022-09-28T13:15:08.765Z,1.20
2022-09-28T13:18:01.007Z,1.40
2022-09-28T13:20:39.928Z,1.30
2022-09-28T13:23:17.000Z,1.40
2022-09-28T13:25:54.090Z,1.30
2022-09-28T13:28:27.185Z,1.20
2022-09-28T13:33:40.030Z,1.40
2022-09-28T13:36:29.598Z,1.40
2022-09-28T13:38:59.565Z,1.60
2022-09-28T13:41:40.500Z,1.10
2022-09-28T13:44:11.621Z,1.50
2022-09-28T13:47:09.983Z,1.10
2022-09-28T13:50:14.811Z,1.20
2022-09-28T13:53:08.287Z,1.30
2022-09-28T13:56:05.155Z,1.50
2022-09-28T13:58:42.407Z,1.40
2022-09-28T14:01:19.169Z,1.40
2022-09-28T14:04:16.037Z,1.50
2022-09-28T14:06:51.422Z,1.30
2022-09-28T14:09:21.325Z,1.50
2022-09-28T14:12:01.684Z,1.50
2022-09-28T14:14:52.781Z,1.80
2022-09-28T14:17:24.254Z,1.90
2022-09-28T14:20:02.253Z,1.70
2022-09-28T14:23:01.042Z,1.60
2022-09-28T14:25:38.523Z,1.70
2022-09-28T14:28:40.155Z,1.80
2022-09-28T14:31:15.270Z,1.70
2022-09-28T14:33:54.864Z,1.80
2022-09-28T14:37:06.379Z,2.60
2022-09-28T14:39:55.666Z,1.80
2022-09-28T14:42:25.635Z,1.60
2022-09-28T14:45:06.168Z,1.60
2022-09-28T14:47:37.988Z,1.80
2022-09-28T14:50:22.142Z,2.00
2022-09-28T14:53:04.536Z,1.80
2022-09-28T14:55:41.108Z,1.90
2022-09-28T14:58:18.008Z,1.70
2022-09-28T15:00:47.267Z,1.60
2022-09-28T15:03:15.845Z,1.60
2022-09-28T15:05:49.742Z,1.60
2022-09-28T15:08:21.093Z,1.50
2022-09-28T15:10:50.663Z,1.50
2022-09-28T15:13:23.522Z,1.60
2022-09-28T15:16:03.856Z,1.50
2022-09-28T15:18:53.379Z,1.50
2022-09-28T15:21:21.741Z,1.40
2022-09-28T15:23:50.564Z,1.60
2022-09-28T15:26:27.433Z,1.60
2022-09-28T15:28:55.989Z,1.60
2022-09-28T15:31:26.929Z,1.60
2022-09-28T15:34:13.337Z,1.60
2022-09-28T15:36:44.238Z,1.60
2022-09-28T15:39:18.751Z,1.80
2022-09-28T15:41:50.345Z,1.60
2022-09-28T15:44:33.048Z,1.60
2022-09-28T15:47:28.084Z,1.80
2022-09-28T15:50:04.261Z,1.90
2022-09-28T15:52:36.112Z,1.80
2022-09-28T15:55:18.835Z,2.20
2022-09-28T15:57:47.560Z,2.40
2022-09-28T16:00:21.461Z,2.40
2022-09-28T16:03:19.301Z,2.80
2022-09-28T16:05:49.519Z,2.70
2022-09-28T16:08:25.036Z,2.70
2022-09-28T16:11:14.287Z,3.00
2022-09-28T16:14:06.094Z,2.80
2022-09-28T16:16:46.267Z,2.60
2022-09-28T16:19:30.223Z,2.50
2022-09-28T16:21:59.680Z,2.50
2022-09-28T16:24:38.812Z,2.00
2022-09-28T16:27:23.155Z,2.00
2022-09-28T16:30:05.184Z,2.20
2022-09-28T16:32:57.597Z,2.20
2022-09-28T16:35:30.124Z,1.90
2022-09-28T16:38:01.456Z,1.90
2022-09-28T16:40:30.976Z,2.10
2022-09-28T16:43:02.936Z,1.90
2022-09-28T16:45:31.403Z,2.10
2022-09-28T16:47:59.413Z,2.40
2022-09-28T16:50:27.534Z,2.10
2022-09-28T16:53:21.457Z,2.10
2022-09-28T16:55:49.993Z,2.20
2022-09-28T16:58:18.646Z,2.10
2022-09-28T17:00:46.422Z,2.40
2022-09-28T17:03:18.470Z,2.60
2022-09-28T17:05:48.189Z,2.70
2022-09-28T17:08:18.252Z,2.90
2022-09-28T17:11:17.972Z,2.90
2022-09-28T17:13:47.537Z,3.10
2022-09-28T17:19:19.027Z,3.10
2022-09-28T17:21:47.416Z,2.80
2022-09-28T17:24:15.301Z,3.00
2022-09-28T17:26:44.493Z,2.90
2022-09-28T17:29:14.724Z,2.80
2022-09-28T17:31:44.103Z,2.80
2022-09-28T17:34:17.421Z,3.00
2022-09-28T17:36:45.574Z,3.00
2022-09-28T17:39:15.863Z,2.90
2022-09-28T17:41:43.681Z,3.00
2022-09-28T17:44:14.016Z,3.40
2022-09-28T17:46:49.089Z,3.20
2022-09-28T17:49:17.675Z,3.60
2022-09-28T17:51:45.854Z,3.30
2022-09-28T17:54:16.767Z,3.80
2022-09-28T17:56:44.874Z,3.20
2022-09-28T17:59:16.529Z,3.00
2022-09-28T18:01:44.609Z,3.00
2022-09-28T18:04:33.253Z,3.50
2022-09-28T18:07:01.899Z,3.40
2022-09-28T18:09:29.910Z,3.60
2022-09-28T18:12:04.225Z,3.40
2022-09-28T18:14:32.103Z,3.20
2022-09-28T18:17:00.168Z,4.80
2022-09-28T18:19:31.997Z,4.00
2022-09-28T18:22:01.596Z,3.90
2022-09-28T18:24:32.447Z,3.90
2022-09-28T18:27:00.368Z,4.00
2022-09-28T18:29:32.858Z,4.00
2022-09-28T18:32:02.151Z,3.70
2022-09-28T18:34:30.191Z,3.60
2022-09-28T18:36:58.186Z,3.90
2022-09-28T18:39:26.748Z,3.80
2022-09-28T18:41:54.755Z,3.30
2022-09-28T18:44:23.201Z,4.10
2022-09-28T18:46:51.268Z,4.40
2022-09-28T18:49:19.098Z,4.60
2022-09-28T18:51:46.993Z,5.10
2022-09-28T18:54:15.403Z,5.10
2022-09-28T18:56:43.233Z,5.50
2022-09-28T18:59:12.543Z,5.30
2022-09-28T19:01:42.093Z,5.50
2022-09-28T19:04:11.049Z,4.60
2022-09-28T19:06:44.529Z,4.70
2022-09-28T19:09:13.241Z,4.30
2022-09-28T19:11:41.373Z,3.30
2022-09-28T19:14:11.173Z,3.50
2022-09-28T19:16:39.177Z,4.20
2022-09-28T19:19:07.139Z,4.70
2022-09-28T19:21:35.144Z,6.70
2022-09-28T19:24:03.589Z,6.70
2022-09-28T19:26:32.950Z,7.40
2022-09-28T19:29:02.770Z,7.60
2022-09-28T19:31:31.795Z,7.60
2022-09-28T19:33:59.842Z,6.40
2022-09-28T19:36:28.779Z,6.60
2022-09-28T19:38:58.954Z,7.40
2022-09-28T19:41:43.493Z,7.20
2022-09-28T19:44:16.855Z,7.20
2022-09-28T19:46:44.897Z,7.20
2022-09-28T19:49:19.178Z,7.10
2022-09-28T19:54:38.286Z,6.40
2022-09-28T19:57:07.976Z,6.80
2022-09-28T19:59:37.686Z,6.90
2022-09-28T20:02:07.897Z,7.10
2022-09-28T20:04:35.821Z,6.30
2022-09-28T20:07:05.394Z,7.10
2022-09-28T20:09:33.440Z,6.20
2022-09-28T20:12:01.659Z,6.40
2022-09-28T20:14:36.326Z,5.90
2022-09-28T20:17:05.950Z,5.80
2022-09-28T20:19:35.092Z,6.40
2022-09-28T20:22:03.557Z,6.30
2022-09-28T20:24:32.754Z,5.80
2022-09-28T20:27:01.578Z,5.90
2022-09-28T20:29:32.098Z,5.40
2022-09-28T20:32:00.456Z,5.30
2022-09-28T20:34:28.343Z,5.40
2022-09-28T20:36:56.204Z,5.50
2022-09-28T20:39:24.134Z,5.40
2022-09-28T20:41:51.954Z,5.60
2022-09-28T20:44:19.815Z,5.90
2022-09-28T20:46:51.186Z,5.40
2022-09-28T20:49:19.003Z,6.60
2022-09-28T20:51:46.861Z,5.80
2022-09-28T20:54:14.699Z,5.40
2022-09-28T20:56:42.614Z,5.90
2022-09-28T20:59:12.182Z,5.90
2022-09-28T21:01:40.860Z,5.80
2022-09-28T21:04:10.151Z,6.00
2022-09-28T21:06:40.177Z,5.60
2022-09-28T21:09:09.693Z,6.00
2022-09-28T21:11:39.528Z,6.00
2022-09-28T21:14:08.633Z,5.50
2022-09-28T21:16:36.728Z,5.80
2022-09-28T21:19:04.911Z,6.00
2022-09-28T21:21:32.774Z,5.90
2022-09-28T21:24:02.118Z,6.00
2022-09-28T21:26:31.362Z,6.10
2022-09-28T21:29:01.838Z,5.90
2022-09-28T21:31:47.002Z,5.60
2022-09-28T21:34:20.783Z,5.80
2022-09-28T21:36:51.455Z,5.90
2022-09-28T21:39:20.158Z,5.90
2022-09-28T21:41:48.210Z,5.90
2022-09-28T21:44:16.146Z,5.60
2022-09-28T21:46:44.142Z,5.00
2022-09-28T21:49:12.700Z,5.30
2022-09-28T21:51:40.526Z,5.70
2022-09-28T21:54:08.639Z,5.10
2022-09-28T21:56:36.615Z,5.50
2022-09-28T21:59:04.647Z,4.60
2022-09-28T22:01:32.818Z,4.90
2022-09-28T22:04:01.131Z,4.20
2022-09-28T22:06:29.267Z,5.00
2022-09-28T22:08:58.064Z,4.50
2022-09-28T22:11:27.896Z,4.80
2022-09-28T22:14:00.125Z,5.20
2022-09-28T22:16:30.719Z,5.00
2022-09-28T22:18:59.690Z,5.30
2022-09-28T22:21:31.897Z,5.50
2022-09-28T22:24:01.463Z,5.10
2022-09-28T22:26:31.848Z,5.10
2022-09-28T22:29:02.464Z,5.20
2022-09-28T22:31:33.055Z,5.00
2022-09-28T22:34:01.074Z,5.70
2022-09-28T22:36:29.348Z,6.00
2022-09-28T22:38:58.176Z,5.30
2022-09-28T22:41:26.458Z,5.60
2022-09-28T22:43:54.840Z,4.80
2022-09-28T22:46:25.289Z,4.30
2022-09-28T22:48:55.854Z,4.70
2022-09-28T22:51:25.683Z,4.40
2022-09-28T22:53:53.580Z,4.40
2022-09-28T22:56:21.510Z,4.10
2022-09-28T22:58:49.349Z,4.00
2022-09-28T23:01:19.793Z,4.10
2022-09-28T23:03:48.020Z,4.00
2022-09-28T23:06:18.650Z,3.90
2022-09-28T23:08:47.918Z,3.90
2022-09-28T23:11:16.465Z,4.00
2022-09-28T23:13:53.252Z,3.60
2022-09-28T23:16:23.590Z,3.90
2022-09-28T23:18:51.740Z,3.70
2022-09-28T23:21:22.478Z,4.00
2022-09-28T23:23:56.564Z,4.20
2022-09-28T23:26:27.152Z,4.00
2022-09-28T23:28:55.605Z,3.80
2022-09-28T23:31:26.392Z,4.00
2022-09-28T23:34:05.372Z,4.00
2022-09-28T23:36:34.110Z,3.90
2022-09-28T23:39:03.215Z,4.30
2022-09-28T23:41:31.029Z,4.20
2022-09-28T23:43:58.762Z,4.00
2022-09-28T23:46:26.622Z,3.80
2022-09-28T23:48:54.536Z,4.60
2022-09-28T23:51:22.450Z,4.10
2022-09-28T23:53:50.503Z,4.30
2022-09-28T23:56:18.322Z,4.10
2022-09-28T23:58:46.077Z,4.60
